Time;durP1;ratioP1;P1;durP2;ratioP2;P2;SDS_P1;SDS_P2;PMS_P1;PMS_P2;Temp;Humidity;BMP_temperature;BMP_pressure;BME280_temperature;BME280_humidity;BME280_pressure;Samples;Min_cycle;Max_cycle;Signal;HPM_P1;HPM_P2
2024/02/10 00:00:55;;;;;;;;;;;;;;;;;;5031744;28;19925;-62
2024/02/10 00:03:22;;;;;;;;;;;;;;;;;;5019380;28;20171;-62
2024/02/10 00:05:48;;;;;;;;;;;;;;;;;;5027948;28;19968;-62
2024/02/10 00:08:13;;;;;;;;;;;;;;;;;;5027933;28;19960;-62
2024/02/10 00:10:41;;;;;;;;;;;;;;;;;;5031929;28;20008;-62
2024/02/10 00:13:07;;;;;;;;;;;;;;;;;;5031357;28;20266;-62
2024/02/10 00:15:33;;;;;;;;;;;;;;;;;;5030305;28;19925;-62
2024/02/10 00:17:59;;;;;;;;;;;;;;;;;;5032549;28;20020;-62
2024/02/10 00:20:25;;;;;;;;;;;;;;;;;;5031902;28;19996;-62
2024/02/10 00:22:52;;;;;;;;;;;;;;;;;;5032007;28;19979;-62
2024/02/10 00:25:21;;;;;;;;;;;;;;;;;;5031073;28;19975;-62
2024/02/10 00:27:47;;;;;;;;;;;;;;;;;;5029830;28;19921;-62
2024/02/10 00:30:13;;;;;;;;;;;;;;;;;;5029921;28;19990;-62
2024/02/10 00:32:39;;;;;;;;;;;;;;;;;;5024570;28;19926;-62
2024/02/10 00:35:05;;;;;;;;;;;;;;;;;;5030684;28;19948;-62
2024/02/10 00:37:31;;;;;;;;;;;;;;;;;;5031491;28;19921;-62
2024/02/10 00:39:57;;;;;;;;;;;;;;;;;;5022776;28;20059;-62
2024/02/10 00:42:27;;;;;;;;;;;;;;;;;;5032049;28;19931;-62
2024/02/10 00:44:53;;;;;;;;;;;;;;;;;;5026584;28;19921;-62
2024/02/10 00:47:20;;;;;;;;;;;;;;;;;;5032435;28;20266;-62
2024/02/10 00:49:47;;;;;;;;;;;;;;;;;;5031140;28;19931;-62
2024/02/10 00:52:17;;;;;;;;;;;;;;;;;;5030539;28;19925;-62
2024/02/10 00:54:45;;;;;;;;;;;;;;;;;;5030481;28;20063;-62
2024/02/10 00:57:11;;;;;;;;;;;;;;;;;;5021834;28;20008;-62
2024/02/10 00:59:40;;;;;;;;;;;;;;;;;;5030705;28;20059;-62
2024/02/10 01:02:07;;;;;;;;;;;;;;;;;;5018771;28;19971;-62
2024/02/10 01:04:33;;;;;;;;;;;;;;;;;;5029763;28;20459;-62
2024/02/10 01:07:01;;;;;;;;;;;;;;;;;;5029497;28;20050;-63
2024/02/10 01:09:27;;;;;;;;;;;;;;;;;;5029812;28;21949;-63
2024/02/10 01:11:53;;;;;;;;;;;;;;;;;;5029288;28;19921;-63
2024/02/10 01:14:19;;;;;;;;;;;;;;;;;;5031016;28;19921;-63
2024/02/10 01:16:45;;;;;;;;;;;;;;;;;;5028936;28;19925;-63
2024/02/10 01:19:11;;;;;;;;;;;;;;;;;;5031685;28;19921;-63
2024/02/10 01:21:39;;;;;;;;;;;;;;;;;;5029984;28;20256;-63
2024/02/10 01:24:05;;;;;;;;;;;;;;;;;;5028920;28;19929;-63
2024/02/10 01:26:31;;;;;;;;;;;;;;;;;;5030042;28;20016;-63
2024/02/10 01:28:57;;;;;;;;;;;;;;;;;;5031803;28;19964;-63
2024/02/10 01:31:26;;;;;;;;;;;;;;;;;;5028270;28;19928;-63
2024/02/10 01:33:52;;;;;;;;;;;;;;;;;;5029746;28;19928;-63
2024/02/10 01:36:19;;;;;;;;;;;;;;;;;;5029573;28;20348;-63
2024/02/10 01:38:46;;;;;;;;;;;;;;;;;;5026998;28;19921;-63
2024/02/10 01:41:12;;;;;;;;;;;;;;;;;;5024088;28;19940;-63
2024/02/10 01:43:38;;;;;;;;;;;;;;;;;;5030248;28;19929;-63
2024/02/10 01:46:05;;;;;;;;;;;;;;;;;;5028363;28;19935;-63
2024/02/10 01:48:31;;;;;;;;;;;;;;;;;;5025969;28;19921;-63
2024/02/10 01:50:57;;;;;;;;;;;;;;;;;;5024527;28;19967;-63
2024/02/10 01:53:24;;;;;;;;;;;;;;;;;;5029156;28;20425;-63
2024/02/10 01:55:50;;;;;;;;;;;;;;;;;;5028517;28;20290;-63
2024/02/10 01:58:17;;;;;;;;;;;;;;;;;;5024999;28;20044;-67
2024/02/10 02:00:43;;;;;;;;;;;;;;;;;;5028080;28;19948;-63
2024/02/10 02:03:08;;;;;;;;;;;;;;;;;;5022601;28;19968;-63
2024/02/10 02:05:34;;;;;;;;;;;;;;;;;;5024404;28;20373;-63
2024/02/10 02:08:02;;;;;;;;;;;;;;;;;;5028672;28;19987;-63
2024/02/10 02:10:28;;;;;;;;;;;;;;;;;;5024180;28;19921;-63
2024/02/10 02:12:54;;;;;;;;;;;;;;;;;;5023626;28;19976;-63
2024/02/10 02:15:20;;;;;;;;;;;;;;;;;;5029358;28;19996;-63
2024/02/10 02:17:47;;;;;;;;;;;;;;;;;;5030869;28;20332;-63
2024/02/10 02:20:13;;;;;;;;;;;;;;;;;;5030979;28;20354;-63
2024/02/10 02:22:42;;;;;;;;;;;;;;;;;;5028368;28;19925;-63
2024/02/10 02:25:08;;;;;;;;;;;;;;;;;;5016501;28;20355;-63
2024/02/10 02:27:34;;;;;;;;;;;;;;;;;;5028936;28;19932;-63
2024/02/10 02:30:00;;;;;;;;;;;;;;;;;;5027307;28;19921;-63
2024/02/10 02:32:28;;;;;;;;;;;;;;;;;;5028115;28;20358;-63
2024/02/10 02:34:54;;;;;;;;;;;;;;;;;;5027859;28;19947;-64
2024/02/10 02:37:22;;;;;;;;;;;;;;;;;;5027313;28;19922;-63
2024/02/10 02:39:48;;;;;;;;;;;;;;;;;;5029841;28;20426;-63
2024/02/10 02:42:14;;;;;;;;;;;;;;;;;;5026303;28;20244;-63
2024/02/10 02:44:44;;;;;;;;;;;;;;;;;;5015910;28;19932;-63
2024/02/10 02:47:10;;;;;;;;;;;;;;;;;;5027231;28;19925;-63
2024/02/10 02:49:37;;;;;;;;;;;;;;;;;;5028975;28;19928;-63
2024/02/10 02:52:07;;;;;;;;;;;;;;;;;;5024492;28;19926;-63
2024/02/10 02:54:34;;;;;;;;;;;;;;;;;;5026867;28;19983;-63
2024/02/10 02:57:00;;;;;;;;;;;;;;;;;;5018734;28;19925;-63
2024/02/10 02:59:26;;;;;;;;;;;;;;;;;;5021120;28;19925;-63
2024/02/10 03:01:53;;;;;;;;;;;;;;;;;;5015223;28;20330;-63
2024/02/10 03:04:19;;;;;;;;;;;;;;;;;;5030597;28;19925;-63
2024/02/10 03:06:45;;;;;;;;;;;;;;;;;;5034724;28;20007;-63
2024/02/10 03:09:12;;;;;;;;;;;;;;;;;;5034956;28;19925;-63
2024/02/10 03:11:38;;;;;;;;;;;;;;;;;;5034965;28;19927;-63
2024/02/10 03:14:04;;;;;;;;;;;;;;;;;;5032200;28;19925;-63
2024/02/10 03:16:33;;;;;;;;;;;;;;;;;;5034928;28;19925;-62
2024/02/10 03:19:01;;;;;;;;;;;;;;;;;;5034366;28;19957;-63
2024/02/10 03:21:27;;;;;;;;;;;;;;;;;;5031635;28;20284;-63
2024/02/10 03:23:54;;;;;;;;;;;;;;;;;;5033230;28;19932;-63
2024/02/10 03:26:20;;;;;;;;;;;;;;;;;;5033655;28;19972;-63
2024/02/10 03:28:46;;;;;;;;;;;;;;;;;;5028246;28;19925;-63
2024/02/10 03:31:12;;;;;;;;;;;;;;;;;;5025969;28;19925;-63
2024/02/10 03:33:38;;;;;;;;;;;;;;;;;;5033322;28;19948;-63
2024/02/10 03:36:05;;;;;;;;;;;;;;;;;;5034211;28;19925;-63
2024/02/10 03:38:31;;;;;;;;;;;;;;;;;;5033618;28;19921;-63
2024/02/10 03:40:57;;;;;;;;;;;;;;;;;;5030632;28;19952;-63
2024/02/10 03:43:26;;;;;;;;;;;;;;;;;;5030512;28;20351;-63
2024/02/10 03:45:52;;;;;;;;;;;;;;;;;;5032299;28;19921;-63
2024/02/10 03:48:18;;;;;;;;;;;;;;;;;;5029121;28;20032;-63
2024/02/10 03:50:43;;;;;;;;;;;;;;;;;;5031406;28;19925;-63
2024/02/10 03:53:09;;;;;;;;;;;;;;;;;;5031325;28;19921;-63
2024/02/10 03:55:38;;;;;;;;;;;;;;;;;;5030502;28;19932;-63
2024/02/10 03:58:04;;;;;;;;;;;;;;;;;;5033257;28;19921;-63
2024/02/10 04:00:31;;;;;;;;;;;;;;;;;;5031112;28;19931;-63
2024/02/10 04:02:57;;;;;;;;;;;;;;;;;;5031584;28;19925;-63
2024/02/10 04:05:22;;;;;;;;;;;;;;;;;;5029437;28;19921;-63
2024/02/10 04:07:52;;;;;;;;;;;;;;;;;;5030600;28;20746;-63
2024/02/10 04:10:18;;;;;;;;;;;;;;;;;;5030990;28;20406;-62
2024/02/10 04:12:44;;;;;;;;;;;;;;;;;;5029890;28;19925;-62
2024/02/10 04:15:13;;;;;;;;;;;;;;;;;;5031976;28;19925;-62
2024/02/10 04:17:39;;;;;;;;;;;;;;;;;;5032409;28;20019;-62
2024/02/10 04:20:07;;;;;;;;;;;;;;;;;;5030721;28;20008;-62
2024/02/10 04:22:33;;;;;;;;;;;;;;;;;;5027963;28;19921;-62
2024/02/10 04:24:58;;;;;;;;;;;;;;;;;;5031965;28;20199;-62
2024/02/10 04:27:24;;;;;;;;;;;;;;;;;;5017072;28;19948;-63
2024/02/10 04:29:50;;;;;;;;;;;;;;;;;;5028204;28;19991;-63
2024/02/10 04:32:16;;;;;;;;;;;;;;;;;;5031652;28;19921;-63
2024/02/10 04:34:44;;;;;;;;;;;;;;;;;;5032009;28;19925;-63
2024/02/10 04:37:10;;;;;;;;;;;;;;;;;;5031252;28;19925;-63
2024/02/10 04:39:37;;;;;;;;;;;;;;;;;;5030765;28;19940;-63
2024/02/10 04:42:05;;;;;;;;;;;;;;;;;;5010855;28;20259;-63
2024/02/10 04:44:31;;;;;;;;;;;;;;;;;;5012688;28;20355;-63
2024/02/10 04:46:57;;;;;;;;;;;;;;;;;;5014661;28;19928;-63
2024/02/10 04:49:25;;;;;;;;;;;;;;;;;;5005251;28;19925;-63
2024/02/10 04:51:51;;;;;;;;;;;;;;;;;;5017981;28;20429;-63
2024/02/10 04:54:17;;;;;;;;;;;;;;;;;;5011797;28;19921;-63
2024/02/10 04:56:43;;;;;;;;;;;;;;;;;;5011963;28;19921;-63
2024/02/10 04:59:17;;;;;;;;;;;;;;;;;;5012858;28;19974;-63
2024/02/10 05:01:43;;;;;;;;;;;;;;;;;;5014547;28;19926;-63
2024/02/10 05:04:11;;;;;;;;;;;;;;;;;;5009826;28;19933;-63
2024/02/10 05:06:37;;;;;;;;;;;;;;;;;;5014302;28;19928;-63
2024/02/10 05:09:03;;;;;;;;;;;;;;;;;;4990847;28;19925;-63
2024/02/10 05:11:31;;;;;;;;;;;;;;;;;;5009340;28;19928;-63
2024/02/10 05:13:57;;;;;;;;;;;;;;;;;;5012300;28;19952;-63
2024/02/10 05:16:23;;;;;;;;;;;;;;;;;;5015085;28;20387;-63
2024/02/10 05:18:51;;;;;;;;;;;;;;;;;;5010437;28;19932;-63
2024/02/10 05:21:17;;;;;;;;;;;;;;;;;;5001949;28;20456;-63
2024/02/10 05:23:48;;;;;;;;;;;;;;;;;;5014819;28;19929;-63
2024/02/10 05:26:15;;;;;;;;;;;;;;;;;;5010720;28;20004;-63
2024/02/10 05:28:41;;;;;;;;;;;;;;;;;;5011147;28;19957;-63
2024/02/10 05:31:07;;;;;;;;;;;;;;;;;;4994518;28;20542;-63
2024/02/10 05:33:33;;;;;;;;;;;;;;;;;;5010819;28;20004;-63
2024/02/10 05:35:59;;;;;;;;;;;;;;;;;;5009106;28;19928;-63
2024/02/10 05:38:25;;;;;;;;;;;;;;;;;;5014864;28;19928;-63
2024/02/10 05:40:50;;;;;;;;;;;;;;;;;;5012484;28;20274;-63
2024/02/10 05:43:16;;;;;;;;;;;;;;;;;;5031439;28;19925;-63
2024/02/10 05:45:43;;;;;;;;;;;;;;;;;;5031223;28;20008;-63
2024/02/10 05:48:09;;;;;;;;;;;;;;;;;;5030120;28;19988;-63
2024/02/10 05:50:36;;;;;;;;;;;;;;;;;;5027509;28;19925;-63
2024/02/10 05:53:02;;;;;;;;;;;;;;;;;;5029487;28;19921;-63
2024/02/10 05:55:28;;;;;;;;;;;;;;;;;;5029425;28;19975;-63
2024/02/10 05:58:06;;;;;;;;;;;;;;;;;;5030742;28;19921;-63
2024/02/10 06:00:32;;;;;;;;;;;;;;;;;;5027901;28;19929;-63
2024/02/10 06:02:59;;;;;;;;;;;;;;;;;;5025563;28;19925;-63
2024/02/10 06:05:25;;;;;;;;;;;;;;;;;;5030592;28;19928;-63
2024/02/10 06:07:52;;;;;;;;;;;;;;;;;;5030753;28;19921;-63
2024/02/10 06:10:18;;;;;;;;;;;;;;;;;;5028758;28;20322;-63
2024/02/10 06:12:44;;;;;;;;;;;;;;;;;;5029621;28;19921;-63
2024/02/10 06:15:10;;;;;;;;;;;;;;;;;;5029015;28;20351;-63
2024/02/10 06:17:38;;;;;;;;;;;;;;;;;;5020492;28;19983;-63
2024/02/10 06:20:07;;;;;;;;;;;;;;;;;;5031356;28;19925;-63
2024/02/10 06:22:33;;;;;;;;;;;;;;;;;;5030039;28;19928;-63
2024/02/10 06:24:59;;;;;;;;;;;;;;;;;;5030135;28;20278;-63
2024/02/10 06:27:25;;;;;;;;;;;;;;;;;;5029398;28;19924;-63
2024/02/10 06:29:51;;;;;;;;;;;;;;;;;;5030278;28;20000;-63
2024/02/10 06:32:20;;;;;;;;;;;;;;;;;;5026450;28;20754;-63
2024/02/10 06:34:51;;;;;;;;;;;;;;;;;;5023894;28;19971;-63
2024/02/10 06:37:17;;;;;;;;;;;;;;;;;;5030722;28;19940;-63
2024/02/10 06:39:43;;;;;;;;;;;;;;;;;;5032726;28;19990;-63
2024/02/10 06:42:09;;;;;;;;;;;;;;;;;;5022809;28;19921;-63
2024/02/10 06:44:38;;;;;;;;;;;;;;;;;;5034077;28;19925;-63
2024/02/10 06:47:06;;;;;;;;;;;;;;;;;;5031928;28;20409;-63
2024/02/10 06:49:34;;;;;;;;;;;;;;;;;;5033175;28;19928;-63
2024/02/10 06:52:02;;;;;;;;;;;;;;;;;;5034269;28;19951;-63
2024/02/10 06:54:28;;;;;;;;;;;;;;;;;;5031826;28;19975;-63
2024/02/10 06:56:57;;;;;;;;;;;;;;;;;;5015520;28;19929;-63
2024/02/10 06:59:23;;;;;;;;;;;;;;;;;;5033301;28;20006;-63
2024/02/10 07:01:54;;;;;;;;;;;;;;;;;;5031353;28;19925;-63
2024/02/10 07:04:20;;;;;;;;;;;;;;;;;;5030924;28;19929;-63
2024/02/10 07:06:53;;;;;;;;;;;;;;;;;;5032292;28;20422;-63
2024/02/10 07:09:19;;;;;;;;;;;;;;;;;;5033453;28;20322;-63
2024/02/10 07:11:45;;;;;;;;;;;;;;;;;;5030783;28;20398;-63
2024/02/10 07:14:11;;;;;;;;;;;;;;;;;;5031994;28;19925;-63
2024/02/10 07:16:37;;;;;;;;;;;;;;;;;;5028844;28;19921;-63
2024/02/10 07:19:06;;;;;;;;;;;;;;;;;;5033398;28;19928;-63
2024/02/10 07:21:35;;;;;;;;;;;;;;;;;;5028384;28;20012;-64
2024/02/10 07:24:05;;;;;;;;;;;;;;;;;;5031443;28;19983;-63
2024/02/10 07:26:31;;;;;;;;;;;;;;;;;;5032158;28;20328;-63
2024/02/10 07:28:58;;;;;;;;;;;;;;;;;;5026200;28;19948;-63
2024/02/10 07:31:26;;;;;;;;;;;;;;;;;;5015077;28;19999;-63
2024/02/10 07:33:52;;;;;;;;;;;;;;;;;;5013495;28;19922;-63
2024/02/10 07:36:18;;;;;;;;;;;;;;;;;;5018480;28;19952;-63
2024/02/10 07:38:44;;;;;;;;;;;;;;;;;;5032402;28;19921;-63
2024/02/10 07:41:10;;;;;;;;;;;;;;;;;;5003128;28;20375;-63
2024/02/10 07:43:36;;;;;;;;;;;;;;;;;;5002290;28;19979;-63
2024/02/10 07:46:02;;;;;;;;;;;;;;;;;;5002422;28;20013;-63
2024/02/10 07:48:29;;;;;;;;;;;;;;;;;;5003422;28;20068;-63
2024/02/10 07:50:55;;;;;;;;;;;;;;;;;;5005038;28;19933;-63
2024/02/10 07:53:21;;;;;;;;;;;;;;;;;;4996928;28;20402;-63
2024/02/10 07:55:47;;;;;;;;;;;;;;;;;;5012935;28;19921;-63
2024/02/10 07:58:16;;;;;;;;;;;;;;;;;;5000219;28;19929;-63
2024/02/10 08:00:42;;;;;;;;;;;;;;;;;;5002086;28;19925;-63
2024/02/10 08:03:08;;;;;;;;;;;;;;;;;;5001647;28;19932;-63
2024/02/10 08:05:34;;;;;;;;;;;;;;;;;;4995755;28;19929;-63
2024/02/10 08:08:01;;;;;;;;;;;;;;;;;;5011114;28;19921;-63
2024/02/10 08:10:27;;;;;;;;;;;;;;;;;;4996509;28;19929;-63
2024/02/10 08:12:53;;;;;;;;;;;;;;;;;;5016091;28;19925;-63
2024/02/10 08:15:22;;;;;;;;;;;;;;;;;;5011741;28;19925;-63
2024/02/10 08:17:48;;;;;;;;;;;;;;;;;;5010735;28;19922;-63
2024/02/10 08:20:14;;;;;;;;;;;;;;;;;;4986262;28;19921;-63
2024/02/10 08:22:40;;;;;;;;;;;;;;;;;;4993035;28;19929;-63
2024/02/10 08:25:07;;;;;;;;;;;;;;;;;;4978520;28;19958;-63
2024/02/10 08:27:33;;;;;;;;;;;;;;;;;;5012520;28;20482;-63
2024/02/10 08:29:59;;;;;;;;;;;;;;;;;;5028674;28;20031;-63
2024/02/10 08:32:26;;;;;;;;;;;;;;;;;;4989785;28;19965;-63
2024/02/10 08:34:52;;;;;;;;;;;;;;;;;;5011062;28;20019;-63
2024/02/10 08:37:19;;;;;;;;;;;;;;;;;;5010083;28;19948;-63
2024/02/10 08:39:45;;;;;;;;;;;;;;;;;;5013801;28;19924;-63
2024/02/10 08:42:11;;;;;;;;;;;;;;;;;;5029733;28;20387;-63
2024/02/10 08:44:37;;;;;;;;;;;;;;;;;;5029297;28;20023;-63
2024/02/10 08:47:03;;;;;;;;;;;;;;;;;;5030644;28;19975;-63
2024/02/10 08:49:30;;;;;;;;;;;;;;;;;;5029207;28;19975;-63
2024/02/10 08:51:56;;;;;;;;;;;;;;;;;;5023834;28;19925;-63
2024/02/10 08:54:22;;;;;;;;;;;;;;;;;;5029368;28;19925;-63
2024/02/10 08:56:48;;;;;;;;;;;;;;;;;;5026232;28;21332;-63
2024/02/10 08:59:14;;;;;;;;;;;;;;;;;;5029080;28;19921;-63
2024/02/10 09:01:43;;;;;;;;;;;;;;;;;;5027006;28;19921;-63
2024/02/10 09:04:09;;;;;;;;;;;;;;;;;;5030294;28;19926;-63
2024/02/10 09:06:38;;;;;;;;;;;;;;;;;;5030540;28;19971;-63
2024/02/10 09:09:04;;;;;;;;;;;;;;;;;;5030321;28;19983;-63
2024/02/10 09:11:36;;;;;;;;;;;;;;;;;;5029464;28;19972;-63
2024/02/10 09:14:02;;;;;;;;;;;;;;;;;;5031570;28;19921;-61
2024/02/10 09:16:28;;;;;;;;;;;;;;;;;;5031783;28;19932;-62
2024/02/10 09:18:54;;;;;;;;;;;;;;;;;;5030270;28;19955;-62
2024/02/10 09:21:20;;;;;;;;;;;;;;;;;;5031895;28;19921;-62
2024/02/10 09:23:46;;;;;;;;;;;;;;;;;;5030906;28;19987;-62
2024/02/10 09:26:15;;;;;;;;;;;;;;;;;;5026515;28;19972;-62
2024/02/10 09:28:41;;;;;;;;;;;;;;;;;;5031117;28;20018;-62
2024/02/10 09:31:13;;;;;;;;;;;;;;;;;;5025367;28;20020;-62
2024/02/10 09:33:39;;;;;;;;;;;;;;;;;;5015871;28;20426;-62
2024/02/10 09:36:08;;;;;;;;;;;;;;;;;;5031054;28;19921;-62
2024/02/10 09:38:34;;;;;;;;;;;;;;;;;;5027290;28;20368;-62
2024/02/10 09:41:00;;;;;;;;;;;;;;;;;;5024003;28;19943;-62
2024/02/10 09:43:26;;;;;;;;;;;;;;;;;;5031892;28;19933;-62
2024/02/10 09:45:52;;;;;;;;;;;;;;;;;;5029259;28;19921;-62
2024/02/10 09:48:18;;;;;;;;;;;;;;;;;;5028924;28;20367;-62
2024/02/10 09:50:44;;;;;;;;;;;;;;;;;;5029283;28;19925;-62
2024/02/10 09:53:12;;;;;;;;;;;;;;;;;;5031902;28;19967;-62
2024/02/10 09:55:38;;;;;;;;;;;;;;;;;;5026468;22;19934;-62
2024/02/10 09:58:04;;;;;;;;;;;;;;;;;;5008624;28;19926;-62
2024/02/10 10:00:32;;;;;;;;;;;;;;;;;;5009126;28;19922;-62
2024/02/10 10:03:00;;;;;;;;;;;;;;;;;;5007918;28;19929;-62
2024/02/10 10:05:29;;;;;;;;;;;;;;;;;;5010180;28;19922;-62
2024/02/10 10:07:55;;;;;;;;;;;;;;;;;;5010635;28;19925;-62
2024/02/10 10:10:21;;;;;;;;;;;;;;;;;;5011148;28;19921;-63
2024/02/10 10:12:47;;;;;;;;;;;;;;;;;;5012301;28;19979;-62
2024/02/10 10:15:13;;;;;;;;;;;;;;;;;;5015916;28;19933;-62
2024/02/10 10:17:39;;;;;;;;;;;;;;;;;;5012451;28;19927;-62
2024/02/10 10:20:05;;;;;;;;;;;;;;;;;;5015680;28;19925;-62
2024/02/10 10:22:31;;;;;;;;;;;;;;;;;;4998542;28;19921;-62
2024/02/10 10:24:57;;;;;;;;;;;;;;;;;;5012139;28;19934;-62
2024/02/10 10:27:24;;;;;;;;;;;;;;;;;;5014160;28;19921;-62
2024/02/10 10:29:50;;;;;;;;;;;;;;;;;;5015369;28;19964;-62
2024/02/10 10:32:16;;;;;;;;;;;;;;;;;;5012041;28;19957;-62
2024/02/10 10:34:42;;;;;;;;;;;;;;;;;;5014902;28;19928;-62
2024/02/10 10:37:08;;;;;;;;;;;;;;;;;;5014246;28;19922;-62
2024/02/10 10:39:34;;;;;;;;;;;;;;;;;;5011979;28;19968;-62
2024/02/10 10:42:00;;;;;;;;;;;;;;;;;;5014631;28;20020;-62
2024/02/10 10:44:26;;;;;;;;;;;;;;;;;;5013322;28;20024;-62
2024/02/10 10:46:52;;;;;;;;;;;;;;;;;;5011637;28;19927;-62
2024/02/10 10:49:18;;;;;;;;;;;;;;;;;;5013175;28;19929;-63
2024/02/10 10:51:44;;;;;;;;;;;;;;;;;;5015196;28;19948;-62
2024/02/10 10:54:10;;;;;;;;;;;;;;;;;;5014598;28;19921;-62
2024/02/10 10:56:35;;;;;;;;;;;;;;;;;;5015645;28;19921;-62
2024/02/10 10:59:01;;;;;;;;;;;;;;;;;;5014415;28;19925;-62
2024/02/10 11:01:27;;;;;;;;;;;;;;;;;;5013051;28;19937;-62
2024/02/10 11:03:54;;;;;;;;;;;;;;;;;;5012547;28;19925;-62
2024/02/10 11:06:22;;;;;;;;;;;;;;;;;;5013164;28;20004;-62
2024/02/10 11:08:48;;;;;;;;;;;;;;;;;;5015405;28;19925;-62
2024/02/10 11:11:14;;;;;;;;;;;;;;;;;;5014045;28;20382;-62
2024/02/10 11:13:40;;;;;;;;;;;;;;;;;;5011828;28;19921;-62
2024/02/10 11:16:15;;;;;;;;;;;;;;;;;;5013116;28;20570;-62
2024/02/10 11:18:44;;;;;;;;;;;;;;;;;;5008630;28;20007;-62
2024/02/10 11:21:10;;;;;;;;;;;;;;;;;;5014513;28;20045;-63
2024/02/10 11:23:37;;;;;;;;;;;;;;;;;;5013619;28;19934;-62
2024/02/10 11:26:05;;;;;;;;;;;;;;;;;;5013673;28;19921;-62
2024/02/10 11:28:32;;;;;;;;;;;;;;;;;;5014439;28;19932;-62
2024/02/10 11:30:58;;;;;;;;;;;;;;;;;;5012759;28;20068;-62
2024/02/10 11:33:24;;;;;;;;;;;;;;;;;;5012697;28;20015;-62
2024/02/10 11:35:50;;;;;;;;;;;;;;;;;;5014134;28;19921;-62
2024/02/10 11:38:16;;;;;;;;;;;;;;;;;;5012005;28;19921;-62
2024/02/10 11:40:42;;;;;;;;;;;;;;;;;;5012629;28;20410;-62
2024/02/10 11:43:10;;;;;;;;;;;;;;;;;;5013972;28;19925;-62
2024/02/10 11:45:36;;;;;;;;;;;;;;;;;;5012626;28;19972;-63
2024/02/10 11:48:03;;;;;;;;;;;;;;;;;;5013565;28;19949;-63
2024/02/10 11:50:29;;;;;;;;;;;;;;;;;;5013528;28;19925;-62
2024/02/10 11:52:59;;;;;;;;;;;;;;;;;;5008466;28;19922;-62
2024/02/10 11:55:25;;;;;;;;;;;;;;;;;;4997071;28;19930;-62
2024/02/10 11:57:54;;;;;;;;;;;;;;;;;;4995637;28;19922;-62
2024/02/10 12:00:21;;;;;;;;;;;;;;;;;;5009782;28;19968;-62
2024/02/10 12:02:47;;;;;;;;;;;;;;;;;;5012231;28;20482;-62
2024/02/10 12:05:20;;;;;;;;;;;;;;;;;;5012133;28;19965;-62
2024/02/10 12:07:49;;;;;;;;;;;;;;;;;;5009279;28;19971;-62
2024/02/10 12:10:14;;;;;;;;;;;;;;;;;;5013365;28;19925;-62
2024/02/10 12:12:41;;;;;;;;;;;;;;;;;;5014108;28;19922;-63
2024/02/10 12:15:12;;;;;;;;;;;;;;;;;;5012232;28;19925;-63
2024/02/10 12:17:39;;;;;;;;;;;;;;;;;;5013468;28;19932;-63
2024/02/10 12:20:05;;;;;;;;;;;;;;;;;;5012577;28;20382;-63
2024/02/10 12:22:31;;;;;;;;;;;;;;;;;;5010656;28;19922;-62
2024/02/10 12:24:57;;;;;;;;;;;;;;;;;;5012546;28;19930;-63
2024/02/10 12:27:25;;;;;;;;;;;;;;;;;;5012737;28;19930;-63
2024/02/10 12:29:51;;;;;;;;;;;;;;;;;;5010402;28;20004;-63
2024/02/10 12:32:17;;;;;;;;;;;;;;;;;;5010551;28;20056;-62
2024/02/10 12:34:43;;;;;;;;;;;;;;;;;;5011178;28;20354;-63
2024/02/10 12:37:10;;;;;;;;;;;;;;;;;;4996515;28;20020;-62
2024/02/10 12:39:36;;;;;;;;;;;;;;;;;;5005820;28;20394;-62
2024/02/10 12:42:02;;;;;;;;;;;;;;;;;;5011461;28;19929;-63
2024/02/10 12:44:28;;;;;;;;;;;;;;;;;;5012185;28;19925;-62
2024/02/10 12:46:56;;;;;;;;;;;;;;;;;;5011854;28;19927;-62
2024/02/10 12:49:25;;;;;;;;;;;;;;;;;;5011111;28;19922;-62
2024/02/10 12:51:53;;;;;;;;;;;;;;;;;;5007383;28;19921;-62
2024/02/10 12:54:20;;;;;;;;;;;;;;;;;;5006272;28;20482;-62
2024/02/10 12:56:46;;;;;;;;;;;;;;;;;;5008855;28;20023;-62
2024/02/10 12:59:13;;;;;;;;;;;;;;;;;;4998075;28;20000;-62
2024/02/10 13:01:39;;;;;;;;;;;;;;;;;;5007871;28;19925;-62
2024/02/10 13:04:05;;;;;;;;;;;;;;;;;;5010014;28;19925;-62
2024/02/10 13:06:31;;;;;;;;;;;;;;;;;;5005942;28;20012;-62
2024/02/10 13:08:58;;;;;;;;;;;;;;;;;;5007060;28;20028;-62
2024/02/10 13:11:24;;;;;;;;;;;;;;;;;;5010504;28;20446;-62
2024/02/10 13:13:50;;;;;;;;;;;;;;;;;;5012858;28;19961;-62
2024/02/10 13:16:16;;;;;;;;;;;;;;;;;;5010613;28;19975;-62
2024/02/10 13:18:42;;;;;;;;;;;;;;;;;;5010682;28;20016;-62
2024/02/10 13:21:08;;;;;;;;;;;;;;;;;;5009347;28;19921;-62
2024/02/10 13:23:37;;;;;;;;;;;;;;;;;;4998575;28;19929;-62
2024/02/10 13:26:03;;;;;;;;;;;;;;;;;;5001699;28;19929;-62
2024/02/10 13:28:30;;;;;;;;;;;;;;;;;;5008117;28;20386;-62
2024/02/10 13:30:56;;;;;;;;;;;;;;;;;;5009068;28;19922;-62
2024/02/10 13:33:22;;;;;;;;;;;;;;;;;;5008462;28;19922;-62
2024/02/10 13:35:54;;;;;;;;;;;;;;;;;;5010787;28;20110;-62
2024/02/10 14:00:34;;;;;;;;;;;;;;;;;;5008915;28;19925;-62
2024/02/10 14:03:00;;;;;;;;;;;;;;;;;;5010077;28;20351;-62
2024/02/10 14:05:41;;;;;;;;;;;;;;;;;;5009473;28;19925;-62
2024/02/10 14:10:46;;;;;;;;;;;;;;;;;;4996612;28;19957;-62
2024/02/10 14:13:17;;;;;;;;;;;;;;;;;;4997064;28;19925;-63
2024/02/10 14:15:53;;;;;;;;;;;;;;;;;;5007255;28;19980;-62
2024/02/10 14:18:25;;;;;;;;;;;;;;;;;;5010525;28;19927;-62
2024/02/10 14:20:51;;;;;;;;;;;;;;;;;;5006230;28;19930;-62
2024/02/10 14:23:24;;;;;;;;;;;;;;;;;;4998781;28;19930;-62
2024/02/10 14:25:50;;;;;;;;;;;;;;;;;;5003755;28;19921;-62
2024/02/10 14:28:23;;;;;;;;;;;;;;;;;;5005299;28;19928;-62
2024/02/10 14:30:49;;;;;;;;;;;;;;;;;;4995496;28;19921;-62
2024/02/10 14:33:15;;;;;;;;;;;;;;;;;;5008838;28;19922;-62
2024/02/10 14:35:46;;;;;;;;;;;;;;;;;;4999604;28;20395;-62
2024/02/10 14:38:24;;;;;;;;;;;;;;;;;;4997285;28;19928;-62
2024/02/10 14:40:51;;;;;;;;;;;;;;;;;;5003588;28;19995;-62
2024/02/10 14:43:17;;;;;;;;;;;;;;;;;;5010848;28;20581;-62
2024/02/10 14:45:43;;;;;;;;;;;;;;;;;;5006980;28;19928;-62
2024/02/10 14:48:08;;;;;;;;;;;;;;;;;;5010696;28;19932;-62
2024/02/10 14:50:34;;;;;;;;;;;;;;;;;;5011123;28;19922;-61
2024/02/10 14:53:00;;;;;;;;;;;;;;;;;;5008996;28;19951;-62
2024/02/10 14:55:28;;;;;;;;;;;;;;;;;;4994198;28;20394;-62
2024/02/10 14:57:54;;;;;;;;;;;;;;;;;;5009147;28;19921;-62
2024/02/10 15:00:23;;;;;;;;;;;;;;;;;;4985884;28;19922;-62
2024/02/10 15:02:49;;;;;;;;;;;;;;;;;;4982851;28;20801;-63
2024/02/10 15:05:15;;;;;;;;;;;;;;;;;;4995389;28;20568;-63
2024/02/10 15:07:41;;;;;;;;;;;;;;;;;;4992839;28;19957;-63
2024/02/10 15:10:07;;;;;;;;;;;;;;;;;;5013502;28;19971;-62
2024/02/10 15:12:33;;;;;;;;;;;;;;;;;;4984685;28;19988;-62
2024/02/10 15:14:59;;;;;;;;;;;;;;;;;;4980752;28;20012;-62
2024/02/10 15:17:25;;;;;;;;;;;;;;;;;;4978708;28;19968;-62
2024/02/10 15:19:51;;;;;;;;;;;;;;;;;;4993599;28;19949;-62
2024/02/10 15:22:19;;;;;;;;;;;;;;;;;;4986901;28;19921;-62
2024/02/10 15:24:44;;;;;;;;;;;;;;;;;;4995285;28;19926;-62
2024/02/10 15:27:12;;;;;;;;;;;;;;;;;;4998507;28;20463;-62
2024/02/10 15:29:38;;;;;;;;;;;;;;;;;;4974904;28;19928;-62
2024/02/10 15:32:04;;;;;;;;;;;;;;;;;;4972408;28;19923;-62
2024/02/10 15:34:35;;;;;;;;;;;;;;;;;;4965082;28;19925;-61
2024/02/10 15:37:01;;;;;;;;;;;;;;;;;;4986314;28;19925;-61
2024/02/10 15:39:27;;;;;;;;;;;;;;;;;;4986254;28;20059;-62
2024/02/10 15:41:53;;;;;;;;;;;;;;;;;;4987663;28;19922;-62
2024/02/10 15:44:20;;;;;;;;;;;;;;;;;;4992735;28;19926;-62
2024/02/10 15:46:46;;;;;;;;;;;;;;;;;;4989554;28;19968;-62
2024/02/10 15:49:12;;;;;;;;;;;;;;;;;;4978338;28;20315;-62
2024/02/10 15:51:38;;;;;;;;;;;;;;;;;;5004190;28;19928;-62
2024/02/10 15:54:04;;;;;;;;;;;;;;;;;;4990908;28;20287;-62
2024/02/10 15:56:30;;;;;;;;;;;;;;;;;;5005399;28;19925;-62
2024/02/10 15:58:58;;;;;;;;;;;;;;;;;;5012066;28;19968;-62
2024/02/10 16:01:24;;;;;;;;;;;;;;;;;;5010020;28;20008;-62
2024/02/10 16:03:50;;;;;;;;;;;;;;;;;;5001680;28;20661;-62
2024/02/10 16:06:16;;;;;;;;;;;;;;;;;;5012224;28;19921;-62
2024/02/10 16:08:43;;;;;;;;;;;;;;;;;;5011700;28;20382;-62
2024/02/10 16:11:09;;;;;;;;;;;;;;;;;;5009937;28;19925;-62
2024/02/10 16:13:37;;;;;;;;;;;;;;;;;;5005306;28;19936;-62
2024/02/10 16:16:03;;;;;;;;;;;;;;;;;;5003279;28;19921;-62
2024/02/10 16:18:29;;;;;;;;;;;;;;;;;;4999282;28;19921;-63
2024/02/10 16:20:56;;;;;;;;;;;;;;;;;;5010665;28;19932;-62
2024/02/10 16:23:22;;;;;;;;;;;;;;;;;;5010113;28;20019;-63
2024/02/10 16:25:49;;;;;;;;;;;;;;;;;;5005832;28;20415;-63
2024/02/10 16:28:15;;;;;;;;;;;;;;;;;;4997733;28;19929;-63
2024/02/10 16:30:43;;;;;;;;;;;;;;;;;;5009542;28;19972;-63
2024/02/10 16:33:08;;;;;;;;;;;;;;;;;;4991164;28;19929;-63
2024/02/10 16:35:34;;;;;;;;;;;;;;;;;;5011190;28;20383;-63
2024/02/10 16:38:00;;;;;;;;;;;;;;;;;;5009580;28;20012;-63
2024/02/10 16:40:29;;;;;;;;;;;;;;;;;;5007854;28;20673;-63
2024/02/10 16:42:56;;;;;;;;;;;;;;;;;;5005329;28;20381;-63
2024/02/10 16:45:22;;;;;;;;;;;;;;;;;;4997670;28;19926;-63
2024/02/10 16:47:50;;;;;;;;;;;;;;;;;;4993624;28;19925;-63
2024/02/10 16:50:16;;;;;;;;;;;;;;;;;;4991262;28;20430;-63
2024/02/10 16:52:43;;;;;;;;;;;;;;;;;;4998093;28;19925;-63
2024/02/10 16:55:10;;;;;;;;;;;;;;;;;;4994251;28;19992;-63
2024/02/10 16:57:35;;;;;;;;;;;;;;;;;;5006383;28;20395;-63
2024/02/10 17:00:01;;;;;;;;;;;;;;;;;;5009973;28;20048;-63
2024/02/10 17:02:27;;;;;;;;;;;;;;;;;;5008781;28;19929;-63
2024/02/10 17:04:57;;;;;;;;;;;;;;;;;;5007000;28;19930;-63
2024/02/10 17:07:29;;;;;;;;;;;;;;;;;;5007818;28;19941;-63